Terminal Aerodrome Forecast
Issued by NWS

Home | Current Version | Previous Version | Text Only | Print | Product List | Glossary On
Versions: 1 2 3 4 5 6 7 8 9 10 11 12 13 14 15 16
000
FTAK31 PAJN 021749
TAFAPG
TAF
PAPG 021749Z 0218/0318 19008KT 5SM -RA BR SCT012 BKN025 OVC040
      TEMPO 0218/0221 20010G18KT 3SM RA BR SCT008 BKN020 OVC035
     FM022100 22006KT P6SM -SHRA BKN025 OVC050
     FM030100 VRB03KT P6SM VCSH SCT025 OVC060
      AMD NOT SKED=

USA.gov is the U.S. government's official web portal to all federal, state and local government web resources and services.